createdAt,value
2019-05-25T00:01:45.920Z,7.20
2019-05-25T00:04:13.888Z,7.12
2019-05-25T00:06:41.759Z,8.80
2019-05-25T00:09:09.629Z,5.95
2019-05-25T00:11:37.513Z,5.97
2019-05-25T00:14:05.371Z,6.65
2019-05-25T00:16:33.828Z,6.30
2019-05-25T00:19:01.739Z,6.35
2019-05-25T00:21:29.695Z,8.50
2019-05-25T00:24:11.114Z,8.25
2019-05-25T00:26:27.175Z,9.13
2019-05-25T00:28:55.023Z,13.00
2019-05-25T00:31:22.896Z,7.58
2019-05-25T00:33:50.771Z,7.55
2019-05-25T00:36:18.720Z,6.95
2019-05-25T00:38:46.595Z,8.18
2019-05-25T00:41:14.481Z,8.60
2019-05-25T00:43:42.331Z,7.40
2019-05-25T00:46:10.310Z,10.80
2019-05-25T00:48:38.268Z,8.13
2019-05-25T00:51:06.319Z,8.65
2019-05-25T00:53:34.338Z,9.23
2019-05-25T00:56:02.244Z,12.93
2019-05-25T00:58:32.438Z,9.28
2019-05-25T01:01:00.462Z,10.50
2019-05-25T01:03:28.495Z,10.40
2019-05-25T01:05:56.381Z,9.90
2019-05-25T01:08:24.257Z,11.45
2019-05-25T01:10:52.144Z,11.12
2019-05-25T01:13:20.078Z,7.25
2019-05-25T01:15:48.030Z,10.08
2019-05-25T01:18:15.959Z,8.53
2019-05-25T01:20:43.826Z,8.08
2019-05-25T01:23:11.712Z,9.03
2019-05-25T01:25:39.693Z,11.18
2019-05-25T01:28:07.594Z,7.55
2019-05-25T01:30:35.484Z,7.12
2019-05-25T01:33:03.373Z,7.65
2019-05-25T01:35:31.252Z,9.90
2019-05-25T01:37:59.124Z,9.05
2019-05-25T01:40:26.965Z,8.48
2019-05-25T01:42:54.823Z,9.18
2019-05-25T01:45:22.773Z,8.10
2019-05-25T01:47:50.779Z,9.35
2019-05-25T01:50:18.722Z,12.78
2019-05-25T01:52:46.701Z,10.00
2019-05-25T01:55:14.623Z,6.80
2019-05-25T01:57:42.522Z,8.45
2019-05-25T02:00:10.573Z,6.78
2019-05-25T02:02:38.460Z,7.37
2019-05-25T02:05:06.320Z,7.15
2019-05-25T02:07:34.190Z,7.72
2019-05-25T02:10:02.025Z,7.15
2019-05-25T02:12:29.913Z,6.25
2019-05-25T02:14:57.783Z,7.47
2019-05-25T02:17:25.693Z,7.85
2019-05-25T02:19:53.539Z,8.50
2019-05-25T02:22:21.420Z,7.33
2019-05-25T02:24:49.285Z,8.18
2019-05-25T02:27:17.195Z,9.88
2019-05-25T02:29:45.074Z,8.35
2019-05-25T02:32:12.969Z,6.65
2019-05-25T02:34:40.820Z,8.40
2019-05-25T02:37:08.707Z,8.13
2019-05-25T02:39:36.603Z,9.45
2019-05-25T02:42:04.541Z,6.67
2019-05-25T02:44:32.427Z,8.28
2019-05-25T02:47:00.269Z,7.75
2019-05-25T02:49:28.165Z,6.62
2019-05-25T02:51:56.017Z,7.75
2019-05-25T02:54:23.920Z,9.48
2019-05-25T02:56:51.873Z,5.12
2019-05-25T02:59:19.782Z,10.20
2019-05-25T03:01:47.661Z,6.67
2019-05-25T03:04:15.521Z,6.12
2019-05-25T03:06:43.378Z,7.60
2019-05-25T03:09:11.252Z,9.75
2019-05-25T03:11:39.096Z,9.03
2019-05-25T03:14:06.998Z,6.45
2019-05-25T03:16:34.884Z,6.33
2019-05-25T03:19:02.716Z,8.98
2019-05-25T03:21:30.639Z,6.60
2019-05-25T03:23:58.569Z,5.28
2019-05-25T03:26:26.549Z,9.25
2019-05-25T03:28:54.436Z,9.68
2019-05-25T03:31:22.328Z,6.42
2019-05-25T03:33:50.314Z,7.78
2019-05-25T03:36:18.194Z,8.30
2019-05-25T03:38:46.085Z,5.00
2019-05-25T03:41:14.061Z,5.75
2019-05-25T03:43:41.928Z,6.00
2019-05-25T03:46:09.806Z,5.08
2019-05-25T03:48:37.651Z,9.23
2019-05-25T03:51:05.531Z,5.72
2019-05-25T03:53:33.489Z,9.03
2019-05-25T03:56:06.027Z,7.40
2019-05-25T03:58:30.978Z,6.87
2019-05-25T04:00:58.863Z,5.35
2019-05-25T04:03:26.758Z,8.60
2019-05-25T04:05:54.793Z,7.65
2019-05-25T04:08:22.752Z,5.58
2019-05-25T04:10:50.747Z,6.42
2019-05-25T04:13:18.583Z,5.83
2019-05-25T04:15:46.515Z,9.13
2019-05-25T04:18:14.479Z,5.33
2019-05-25T04:20:42.337Z,6.33
2019-05-25T04:23:10.288Z,6.10
2019-05-25T04:25:38.231Z,7.97
2019-05-25T04:28:06.135Z,5.55
2019-05-25T04:30:34.100Z,6.12
2019-05-25T04:33:02.047Z,5.70
2019-05-25T04:35:29.905Z,7.25
2019-05-25T04:37:57.823Z,5.53
2019-05-25T04:40:25.685Z,6.67
2019-05-25T04:42:53.571Z,6.42
2019-05-25T04:45:21.406Z,8.18
2019-05-25T04:47:49.270Z,5.95
2019-05-25T04:50:17.132Z,6.83
2019-05-25T04:52:45.141Z,7.67
2019-05-25T04:55:13.098Z,6.72
2019-05-25T04:57:40.983Z,8.63
2019-05-25T05:00:08.865Z,5.60
2019-05-25T05:02:36.763Z,6.97
2019-05-25T05:05:04.618Z,8.15
2019-05-25T05:07:32.507Z,10.32
2019-05-25T05:10:03.079Z,6.12
2019-05-25T05:12:30.021Z,5.47
2019-05-25T05:14:57.888Z,7.55
2019-05-25T05:17:25.763Z,6.58
2019-05-25T05:19:53.695Z,6.78
2019-05-25T05:22:21.734Z,6.55
2019-05-25T05:24:49.663Z,6.80
2019-05-25T05:27:17.542Z,6.35
2019-05-25T05:29:45.489Z,7.28
2019-05-25T05:32:26.576Z,7.35
2019-05-25T05:34:42.965Z,5.40
2019-05-25T05:37:10.834Z,6.53
2019-05-25T05:39:38.709Z,8.55
2019-05-25T05:42:06.600Z,4.67
2019-05-25T05:44:34.520Z,5.83
2019-05-25T05:47:02.548Z,5.03
2019-05-25T05:49:30.404Z,7.90
2019-05-25T05:51:58.264Z,5.08
2019-05-25T05:54:26.133Z,4.40
2019-05-25T05:56:54.015Z,4.67
2019-05-25T05:59:21.900Z,5.62
2019-05-25T06:01:49.823Z,4.72
2019-05-25T06:04:17.699Z,6.85
2019-05-25T06:06:45.547Z,4.95
2019-05-25T06:09:13.425Z,5.92
2019-05-25T06:11:41.409Z,4.60
2019-05-25T06:14:09.387Z,7.70
2019-05-25T06:16:37.247Z,5.30
2019-05-25T06:19:05.106Z,5.62
2019-05-25T06:21:33.002Z,5.12
2019-05-25T06:24:00.898Z,7.22
2019-05-25T06:26:28.799Z,4.92
2019-05-25T06:28:56.705Z,4.55
2019-05-25T06:31:24.574Z,6.22
2019-05-25T06:33:52.443Z,6.00
2019-05-25T06:36:20.349Z,7.17
2019-05-25T06:38:48.232Z,11.12
2019-05-25T06:41:16.100Z,8.15
2019-05-25T06:43:43.961Z,5.28
2019-05-25T06:46:11.823Z,4.92
2019-05-25T06:48:39.702Z,6.67
2019-05-25T06:51:07.593Z,7.95
2019-05-25T06:53:35.498Z,7.00
2019-05-25T06:56:03.373Z,7.22
2019-05-25T06:58:31.350Z,6.50
2019-05-25T07:00:59.209Z,6.37
2019-05-25T07:03:27.088Z,7.62
2019-05-25T07:05:54.933Z,9.08
2019-05-25T07:08:22.809Z,7.72
2019-05-25T07:10:50.664Z,6.90
2019-05-25T07:13:18.556Z,6.17
2019-05-25T07:15:46.416Z,9.58
2019-05-25T07:18:14.263Z,9.93
2019-05-25T07:20:42.201Z,10.53
2019-05-25T07:23:10.075Z,8.45
2019-05-25T07:25:37.991Z,9.88
2019-05-25T07:28:05.829Z,6.58
2019-05-25T07:30:33.695Z,8.05
2019-05-25T07:33:01.561Z,8.55
2019-05-25T07:35:29.512Z,8.00
2019-05-25T07:37:57.347Z,6.75
2019-05-25T07:40:25.423Z,5.97
2019-05-25T07:42:53.361Z,5.72
2019-05-25T07:45:21.257Z,8.73
2019-05-25T07:47:49.156Z,10.68
2019-05-25T07:50:17.042Z,6.97
2019-05-25T07:52:44.892Z,6.65
2019-05-25T07:55:12.790Z,9.20
2019-05-25T07:57:40.657Z,8.53
2019-05-25T08:00:08.537Z,10.85
2019-05-25T08:02:36.394Z,6.87
2019-05-25T08:05:05.987Z,9.13
2019-05-25T08:07:34.000Z,8.75
2019-05-25T08:10:04.001Z,9.05
2019-05-25T08:12:31.808Z,7.35
2019-05-25T08:14:59.958Z,8.63
2019-05-25T08:17:29.901Z,8.50
2019-05-25T08:19:57.513Z,7.62
2019-05-25T08:22:32.062Z,9.10
2019-05-25T08:24:59.762Z,8.30
2019-05-25T08:27:27.805Z,6.67
2019-05-25T08:29:58.483Z,9.00
2019-05-25T08:32:26.539Z,8.15
2019-05-25T08:34:54.549Z,7.35
2019-05-25T08:37:22.597Z,9.23
2019-05-25T08:39:50.671Z,11.90
2019-05-25T08:42:18.613Z,6.37
2019-05-25T08:44:46.577Z,9.00
2019-05-25T08:47:14.547Z,10.63
2019-05-25T08:49:42.441Z,7.17
2019-05-25T08:52:10.311Z,5.85
2019-05-25T08:54:38.427Z,7.15
2019-05-25T08:57:06.501Z,8.90
2019-05-25T08:59:34.561Z,7.58
2019-05-25T09:02:02.563Z,5.33
2019-05-25T09:04:30.503Z,9.23
2019-05-25T09:06:58.445Z,4.87
2019-05-25T09:09:26.471Z,6.35
2019-05-25T09:11:54.565Z,3.92
2019-05-25T09:14:22.538Z,3.80
2019-05-25T09:16:50.535Z,3.30
2019-05-25T09:19:18.621Z,3.12
2019-05-25T09:22:01.422Z,3.90
2019-05-25T09:24:16.277Z,4.12
2019-05-25T09:26:45.699Z,5.45
2019-05-25T09:29:13.627Z,4.53
2019-05-25T09:31:41.531Z,4.05
2019-05-25T09:34:09.403Z,3.67
2019-05-25T09:36:37.411Z,2.25
2019-05-25T09:39:05.947Z,4.35
2019-05-25T09:41:34.004Z,3.58
2019-05-25T09:44:03.625Z,3.92
2019-05-25T09:46:31.718Z,5.05
2019-05-25T09:48:59.723Z,4.53
2019-05-25T09:51:27.631Z,2.15
2019-05-25T09:53:55.773Z,4.33
2019-05-25T09:56:23.817Z,2.17
2019-05-25T09:58:51.804Z,3.98
2019-05-25T10:01:19.779Z,3.92
2019-05-25T10:03:47.791Z,3.25
2019-05-25T10:06:15.694Z,2.85
2019-05-25T10:08:43.581Z,3.95
2019-05-25T10:11:11.588Z,3.42
2019-05-25T10:13:39.658Z,3.30
2019-05-25T10:16:09.373Z,2.58
2019-05-25T10:18:37.447Z,2.83
2019-05-25T10:21:05.470Z,2.75
2019-05-25T10:23:33.554Z,3.47
2019-05-25T10:26:04.260Z,1.50
2019-05-25T10:28:32.277Z,4.05
2019-05-25T10:31:00.286Z,1.92
2019-05-25T10:33:28.233Z,2.05
2019-05-25T10:35:56.085Z,2.10
2019-05-25T10:38:24.036Z,3.00
2019-05-25T10:40:52.057Z,3.52
2019-05-25T10:43:20.040Z,1.77
2019-05-25T10:45:48.008Z,3.20
2019-05-25T10:48:16.047Z,1.98
2019-05-25T10:50:44.154Z,1.92
2019-05-25T10:53:12.039Z,2.15
2019-05-25T10:55:40.059Z,2.20
2019-05-25T10:58:08.067Z,2.62
2019-05-25T11:00:36.095Z,2.52
2019-05-25T11:03:06.229Z,1.40
2019-05-25T11:05:34.135Z,1.77
2019-05-25T11:08:01.982Z,2.98
2019-05-25T11:10:30.233Z,2.65
2019-05-25T11:12:58.187Z,2.95
2019-05-25T11:15:26.219Z,1.40
2019-05-25T11:17:54.167Z,1.75
2019-05-25T11:20:22.233Z,2.40
2019-05-25T11:22:50.260Z,2.02
2019-05-25T11:25:21.558Z,1.77
2019-05-25T11:27:48.927Z,2.85
2019-05-25T11:30:17.082Z,2.58
2019-05-25T11:32:45.069Z,1.20
2019-05-25T11:35:13.114Z,1.30
2019-05-25T11:37:41.090Z,2.42
2019-05-25T11:40:09.049Z,3.72
2019-05-25T11:42:39.646Z,3.33
2019-05-25T11:45:07.640Z,2.40
2019-05-25T11:47:35.726Z,1.95
2019-05-25T11:50:03.722Z,1.70
2019-05-25T11:52:31.767Z,1.52
2019-05-25T11:54:59.787Z,3.30
2019-05-25T11:57:27.955Z,4.28
2019-05-25T11:59:56.056Z,6.45
2019-05-25T12:02:24.096Z,7.55
2019-05-25T12:04:52.137Z,3.05
2019-05-25T12:07:20.097Z,4.62
2019-05-25T12:09:49.844Z,2.30
2019-05-25T12:12:18.010Z,2.30
2019-05-25T12:14:46.095Z,3.27
2019-05-25T12:17:17.818Z,6.12
2019-05-25T12:19:45.932Z,2.47
2019-05-25T12:22:13.993Z,3.37
2019-05-25T12:24:42.063Z,2.58
2019-05-25T12:27:10.082Z,3.37
2019-05-25T12:29:38.118Z,2.42
2019-05-25T12:32:06.166Z,2.92
2019-05-25T12:34:34.062Z,3.08
2019-05-25T12:37:02.012Z,4.22
2019-05-25T12:39:29.894Z,4.17
2019-05-25T12:41:57.942Z,3.72
2019-05-25T12:44:25.991Z,6.30
2019-05-25T12:46:53.909Z,1.50
2019-05-25T12:49:21.934Z,6.58
2019-05-25T12:51:51.106Z,2.45
2019-05-25T12:54:19.200Z,1.85
2019-05-25T12:56:47.236Z,5.28
2019-05-25T12:59:15.592Z,4.30
2019-05-25T13:01:43.428Z,3.65
2019-05-25T13:04:11.295Z,1.82
2019-05-25T13:06:40.952Z,4.83
2019-05-25T13:09:08.931Z,4.03
2019-05-25T13:11:36.908Z,1.67
2019-05-25T13:14:14.111Z,1.80
2019-05-25T13:16:34.710Z,1.65
2019-05-25T13:19:04.517Z,1.87
2019-05-25T13:21:32.363Z,1.42
2019-05-25T13:24:00.368Z,4.90
2019-05-25T13:26:28.317Z,2.98
2019-05-25T13:28:56.223Z,3.52
2019-05-25T13:31:24.145Z,2.05
2019-05-25T13:33:52.063Z,1.30
2019-05-25T13:36:20.002Z,7.53
2019-05-25T13:38:47.965Z,2.65
2019-05-25T13:41:15.865Z,1.80
2019-05-25T13:43:44.916Z,8.05
2019-05-25T13:46:12.799Z,2.02
2019-05-25T13:48:40.818Z,1.82
2019-05-25T13:51:08.893Z,1.42
2019-05-25T13:53:36.894Z,3.33
2019-05-25T13:56:04.757Z,2.72
2019-05-25T13:58:32.759Z,4.92
2019-05-25T14:01:00.654Z,2.70
2019-05-25T14:03:28.539Z,2.87
2019-05-25T14:05:56.499Z,2.22
2019-05-25T14:08:24.484Z,2.40
2019-05-25T14:10:52.398Z,6.25
2019-05-25T14:13:20.370Z,2.52
2019-05-25T14:15:48.354Z,5.00
2019-05-25T14:18:16.324Z,17.67
2019-05-25T14:20:44.219Z,12.28
2019-05-25T14:23:12.175Z,15.45
2019-05-25T14:25:40.091Z,24.82
2019-05-25T14:28:08.017Z,17.57
2019-05-25T14:30:35.996Z,16.80
2019-05-25T14:33:03.871Z,13.10
2019-05-25T14:35:31.791Z,13.05
2019-05-25T14:37:59.641Z,8.33
2019-05-25T14:40:27.618Z,8.50
2019-05-25T14:42:55.482Z,12.05
2019-05-25T14:45:23.475Z,11.85
2019-05-25T14:47:51.469Z,4.45
2019-05-25T14:50:19.506Z,5.62
2019-05-25T14:52:47.574Z,4.40
2019-05-25T14:55:15.508Z,6.95
2019-05-25T14:57:43.478Z,4.53
2019-05-25T15:00:13.354Z,4.30
2019-05-25T15:02:41.312Z,5.37
2019-05-25T15:05:09.194Z,4.28
2019-05-25T15:07:37.098Z,5.62
2019-05-25T15:10:04.981Z,4.83
2019-05-25T15:12:32.861Z,3.37
2019-05-25T15:15:00.842Z,3.42
2019-05-25T15:17:28.794Z,8.65
2019-05-25T15:19:56.775Z,9.78
2019-05-25T15:22:24.639Z,8.08
2019-05-25T15:24:52.502Z,5.22
2019-05-25T15:27:20.375Z,4.72
2019-05-25T15:29:48.265Z,8.35
2019-05-25T15:32:20.396Z,5.75
2019-05-25T15:34:46.600Z,7.83
2019-05-25T15:37:14.687Z,6.22
2019-05-25T15:39:42.601Z,6.60
2019-05-25T15:42:10.476Z,6.78
2019-05-25T15:44:38.327Z,4.47
2019-05-25T15:47:06.187Z,3.62
2019-05-25T15:49:34.097Z,4.37
2019-05-25T15:52:02.079Z,4.25
2019-05-25T15:54:29.957Z,3.95
2019-05-25T15:56:57.828Z,3.90
2019-05-25T15:59:28.085Z,4.85
2019-05-25T16:01:55.512Z,6.87
2019-05-25T16:04:26.597Z,7.20
2019-05-25T16:06:54.651Z,10.65
2019-05-25T16:09:22.719Z,9.63
2019-05-25T16:11:52.295Z,8.95
2019-05-25T16:14:20.302Z,9.48
2019-05-25T16:16:48.354Z,7.85
2019-05-25T16:19:16.720Z,6.55
2019-05-25T16:21:44.752Z,7.28
2019-05-25T16:24:12.885Z,6.65
2019-05-25T16:26:45.953Z,5.80
2019-05-25T16:29:10.634Z,6.70
2019-05-25T16:31:38.555Z,7.12
2019-05-25T16:34:06.555Z,7.33
2019-05-25T16:36:37.474Z,7.00
2019-05-25T16:39:05.538Z,8.38
2019-05-25T16:41:33.572Z,9.70
2019-05-25T16:44:01.547Z,12.23
2019-05-25T16:46:29.698Z,9.88
2019-05-25T16:48:57.703Z,12.47
2019-05-25T16:51:25.804Z,11.00
2019-05-25T16:53:53.785Z,11.33
2019-05-25T16:56:21.732Z,12.45
2019-05-25T16:58:49.746Z,9.23
2019-05-25T17:01:18.250Z,8.08
2019-05-25T17:03:46.443Z,10.03
2019-05-25T17:06:14.438Z,9.75
2019-05-25T17:08:42.475Z,11.28
2019-05-25T17:11:10.404Z,9.05
2019-05-25T17:13:38.449Z,11.85
2019-05-25T17:16:06.461Z,9.13
2019-05-25T17:18:34.386Z,10.58
2019-05-25T17:21:02.416Z,10.08
2019-05-25T17:23:30.307Z,10.03
2019-05-25T17:25:58.274Z,9.88
2019-05-25T17:28:26.279Z,10.48
2019-05-25T17:30:54.312Z,11.03
2019-05-25T17:33:22.357Z,10.48
2019-05-25T17:35:50.404Z,10.43
2019-05-25T17:38:19.869Z,12.03
2019-05-25T17:40:47.356Z,12.00
2019-05-25T17:43:18.217Z,10.90
2019-05-25T17:45:46.207Z,14.45
2019-05-25T17:48:16.548Z,11.12
2019-05-25T17:50:45.375Z,10.48
2019-05-25T17:53:13.298Z,11.35
2019-05-25T17:55:45.549Z,9.83
2019-05-25T17:58:13.578Z,10.13
2019-05-25T18:00:41.586Z,9.73
2019-05-25T18:03:09.781Z,9.23
2019-05-25T18:05:37.890Z,10.13
2019-05-25T18:08:06.100Z,9.93
2019-05-25T18:10:51.341Z,10.48
2019-05-25T18:13:03.987Z,12.33
2019-05-25T18:15:31.974Z,11.33
2019-05-25T18:18:01.806Z,10.25
2019-05-25T18:20:29.885Z,11.25
2019-05-25T18:22:58.043Z,11.12
2019-05-25T18:25:26.154Z,12.53
2019-05-25T18:27:55.567Z,10.80
2019-05-25T18:30:23.564Z,11.48
2019-05-25T18:32:51.525Z,10.43
2019-05-25T18:35:19.513Z,14.47
2019-05-25T18:37:47.587Z,11.55
2019-05-25T18:40:17.035Z,12.30
2019-05-25T18:42:45.054Z,9.63
2019-05-25T18:45:13.050Z,10.32
2019-05-25T18:47:43.055Z,13.35
2019-05-25T18:50:10.850Z,14.78
2019-05-25T18:52:38.824Z,12.73
2019-05-25T18:55:06.905Z,13.80
2019-05-25T18:57:34.960Z,9.85
2019-05-25T19:00:06.155Z,10.15
2019-05-25T19:02:34.245Z,11.00
2019-05-25T19:05:02.362Z,14.20
2019-05-25T19:07:30.524Z,10.85
2019-05-25T19:09:58.575Z,11.85
2019-05-25T19:12:26.643Z,12.33
2019-05-25T19:14:54.811Z,11.25
2019-05-25T19:17:22.837Z,11.25
2019-05-25T19:19:50.887Z,11.20
2019-05-25T19:22:18.997Z,10.48
2019-05-25T19:24:47.146Z,13.13
2019-05-25T19:27:15.158Z,11.97
2019-05-25T19:29:46.129Z,13.00
2019-05-25T19:32:14.315Z,13.55
2019-05-25T19:34:56.632Z,13.32
2019-05-25T19:37:12.139Z,11.93
2019-05-25T19:39:40.179Z,14.38
2019-05-25T19:42:08.270Z,11.35
2019-05-25T19:44:36.192Z,10.50
2019-05-25T19:47:04.297Z,11.05
2019-05-25T19:49:32.468Z,12.98
2019-05-25T19:52:00.439Z,12.28
2019-05-25T19:54:28.425Z,12.88
2019-05-25T19:56:56.375Z,13.60
2019-05-25T19:59:24.307Z,12.93
2019-05-25T20:01:52.231Z,13.15
2019-05-25T20:04:20.115Z,14.78
2019-05-25T20:06:48.063Z,12.93
2019-05-25T20:09:15.934Z,12.03
2019-05-25T20:11:43.907Z,11.57
2019-05-25T20:14:11.902Z,10.43
2019-05-25T20:16:39.875Z,11.00
2019-05-25T20:19:07.750Z,9.93
2019-05-25T20:21:35.808Z,13.28
2019-05-25T20:24:04.134Z,13.80
2019-05-25T20:26:32.502Z,12.50
2019-05-25T20:29:00.472Z,10.60
2019-05-25T20:31:28.470Z,11.20
2019-05-25T20:33:56.437Z,12.30
2019-05-25T20:36:24.396Z,15.80
2019-05-25T20:38:52.440Z,10.95
2019-05-25T20:41:20.437Z,11.75
2019-05-25T20:43:48.301Z,11.97
2019-05-25T20:46:16.197Z,12.35
2019-05-25T20:48:44.445Z,13.13
2019-05-25T20:51:12.431Z,12.43
2019-05-25T20:53:40.436Z,11.83
2019-05-25T20:56:08.420Z,13.10
2019-05-25T20:58:39.081Z,12.60
2019-05-25T21:01:06.262Z,12.33
2019-05-25T21:03:34.335Z,11.83
2019-05-25T21:06:02.337Z,12.78
2019-05-25T21:08:30.426Z,15.78
2019-05-25T21:10:58.365Z,13.65
2019-05-25T21:13:26.257Z,13.10
2019-05-25T21:15:54.127Z,11.68
2019-05-25T21:18:22.023Z,12.58
2019-05-25T21:20:49.930Z,10.98
2019-05-25T21:23:17.840Z,13.43
2019-05-25T21:25:45.822Z,12.35
2019-05-25T21:28:13.844Z,11.48
2019-05-25T21:30:41.788Z,15.80
2019-05-25T21:33:11.533Z,11.60
2019-05-25T21:35:39.427Z,11.22
2019-05-25T21:38:07.431Z,14.75
2019-05-25T21:40:35.388Z,11.55
2019-05-25T21:43:03.369Z,11.78
2019-05-25T21:45:31.230Z,12.60
2019-05-25T21:47:59.143Z,10.48
2019-05-25T21:50:27.028Z,11.53
2019-05-25T21:52:54.949Z,15.20
2019-05-25T21:55:22.916Z,13.78
2019-05-25T21:57:50.829Z,12.88
2019-05-25T22:00:21.357Z,12.80
2019-05-25T22:02:49.355Z,11.75
2019-05-25T22:05:17.315Z,12.23
2019-05-25T22:07:45.240Z,14.13
2019-05-25T22:10:13.093Z,13.75
2019-05-25T22:12:41.082Z,13.53
2019-05-25T22:15:10.493Z,14.90
2019-05-25T22:17:38.383Z,12.88
2019-05-25T22:20:06.336Z,13.13
2019-05-25T22:22:34.234Z,12.10
2019-05-25T22:25:02.106Z,15.35
2019-05-25T22:27:29.981Z,12.45
2019-05-25T22:29:57.850Z,12.03
2019-05-25T22:32:25.853Z,10.90
2019-05-25T22:34:53.823Z,14.03
2019-05-25T22:37:21.806Z,12.07
2019-05-25T22:39:49.700Z,10.70
2019-05-25T22:42:17.617Z,12.03
2019-05-25T22:44:45.466Z,12.75
2019-05-25T22:47:13.385Z,13.70
2019-05-25T22:49:41.323Z,12.28
2019-05-25T22:52:09.323Z,11.60
2019-05-25T22:54:37.297Z,10.58
2019-05-25T22:57:05.183Z,10.18
2019-05-25T22:59:33.094Z,10.63
2019-05-25T23:02:01.007Z,11.08
2019-05-25T23:04:28.897Z,11.05
2019-05-25T23:06:58.449Z,11.73
2019-05-25T23:09:26.395Z,13.22
2019-05-25T23:11:54.355Z,11.80
2019-05-25T23:14:22.284Z,9.53
2019-05-25T23:16:50.216Z,12.47
2019-05-25T23:19:18.176Z,11.33
2019-05-25T23:21:46.230Z,10.08
2019-05-25T23:24:14.265Z,11.35
2019-05-25T23:26:42.264Z,10.80
2019-05-25T23:29:10.304Z,8.98
2019-05-25T23:31:38.316Z,12.93
2019-05-25T23:34:06.321Z,9.55
2019-05-25T23:36:34.233Z,10.23
2019-05-25T23:39:02.155Z,9.83
2019-05-25T23:41:30.242Z,8.95
2019-05-25T23:43:59.934Z,10.82
2019-05-25T23:46:32.799Z,9.45
2019-05-25T23:49:00.761Z,12.30
2019-05-25T23:51:28.656Z,10.10
2019-05-25T23:53:56.608Z,9.30
2019-05-25T23:56:24.516Z,13.70
2019-05-25T23:58:52.486Z,9.73
